< < Back
Terminal Aerodrome Forecast


Current Version              Previous Versions:   1  2  3  4  5  6  7  8  9  

Terminal Aerodrome Forecast

734
FTUS44 KMRX 041720
TAFCHA
TAF
KCHA 041720Z 0418/0518 27012KT P6SM SCT070
     FM042200 27014G22KT P6SM -RA SCT050 BKN060
      TEMPO 0422/0502 5SM -SHRA BR BKN035
     FM050200 32012KT P6SM VCSH OVC030
     FM050600 35008KT P6SM BKN035=



Latest METAR

962
SAUS80 KWBC 041700
MTRCHA
METAR KCHA 041653Z 27007G17KT 10SM SCT055 20/05 A2980 RMK AO2 SLP086
T02000050


USA.gov is the U.S. government's official web portal to all federal, state and local government web resources and services.